Time;durP1;ratioP1;P1;durP2;ratioP2;P2;SDS_P1;SDS_P2;PMS_P1;PMS_P2;Temp;Humidity;BMP_temperature;BMP_pressure;BME280_temperature;BME280_humidity;BME280_pressure;Samples;Min_cycle;Max_cycle;Signal;HPM_P1;HPM_P2
2021/11/27 00:01:53;;;;;;;35.15;18.75;;;7.50;75.10;;;;;;5056475;28;20033;-35
2021/11/27 00:04:20;;;;;;;33.88;17.40;;;7.50;75.20;;;;;;5062534;28;20048;-36
2021/11/27 00:06:46;;;;;;;30.98;17.17;;;7.50;75.30;;;;;;5062106;28;20094;-36
2021/11/27 00:09:11;;;;;;;35.90;18.42;;;7.50;75.40;;;;;;5062330;28;20217;-34
2021/11/27 00:11:38;;;;;;;37.05;18.05;;;7.50;75.50;;;;;;5061915;28;20119;-34
2021/11/27 00:14:06;;;;;;;32.80;17.33;;;7.50;75.70;;;;;;5062421;28;20025;-40
2021/11/27 00:16:33;;;;;;;38.08;18.02;;;7.60;75.70;;;;;;5062176;28;20460;-35
2021/11/27 00:18:59;;;;;;;34.20;18.52;;;7.60;75.80;;;;;;5062429;28;20427;-35
2021/11/27 00:21:25;;;;;;;34.60;17.70;;;7.50;75.80;;;;;;5061921;28;20048;-39
2021/11/27 00:23:52;;;;;;;34.67;18.10;;;7.50;75.80;;;;;;5062183;28;20032;-34
2021/11/27 00:26:18;;;;;;;37.78;17.95;;;7.60;76.50;;;;;;5061921;28;20025;-34
2021/11/27 00:28:46;;;;;;;35.00;18.40;;;7.60;76.20;;;;;;5062113;28;20151;-34
2021/11/27 00:31:19;;;;;;;33.35;18.63;;;7.60;76.30;;;;;;5062138;28;20033;-40
2021/11/27 00:33:46;;;;;;;39.35;19.30;;;7.60;76.40;;;;;;5062312;28;20048;-41
2021/11/27 00:36:13;;;;;;;35.85;19.15;;;7.60;76.60;;;;;;5062135;28;20036;-34
2021/11/27 00:38:39;;;;;;;37.38;19.25;;;7.60;76.80;;;;;;5062205;28;20317;-40
2021/11/27 00:41:04;;;;;;;36.58;19.70;;;7.60;77.00;;;;;;5062224;28;20087;-34
2021/11/27 00:43:31;;;;;;;37.90;19.73;;;7.60;77.30;;;;;;5062045;28;20410;-34
2021/11/27 00:45:57;;;;;;;36.08;19.48;;;7.60;78.00;;;;;;5061852;28;20375;-34
2021/11/27 00:48:25;;;;;;;39.75;19.55;;;7.60;78.00;;;;;;5061861;28;20116;-35
2021/11/27 00:50:58;;;;;;;36.60;18.95;;;7.60;78.30;;;;;;5062452;28;20029;-34
2021/11/27 00:53:24;;;;;;;39.25;20.55;;;7.60;78.60;;;;;;5061719;28;20029;-35
2021/11/27 00:55:50;;;;;;;42.97;20.02;;;7.60;78.90;;;;;;5061820;28;20057;-40
2021/11/27 00:58:17;;;;;;;41.47;21.85;;;7.60;79.10;;;;;;5061607;28;20037;-40
2021/11/27 01:00:49;;;;;;;41.42;21.10;;;7.60;79.20;;;;;;5062285;28;20036;-35
2021/11/27 01:03:18;;;;;;;42.40;21.90;;;7.60;79.50;;;;;;5061886;28;20028;-40
2021/11/27 01:05:45;;;;;;;42.15;21.63;;;7.60;79.80;;;;;;5062369;28;20029;-40
2021/11/27 01:08:11;;;;;;;45.35;23.02;;;7.60;80.20;;;;;;5061518;28;20037;-40
2021/11/27 01:11:00;;;;;;;42.40;20.23;;;7.60;80.30;;;;;;5062281;28;20036;-34
2021/11/27 01:13:26;;;;;;;40.03;21.52;;;7.60;80.50;;;;;;5060209;28;20041;-40
2021/11/27 01:15:52;;;;;;;40.40;20.60;;;7.60;80.40;;;;;;5058815;28;20037;-40
2021/11/27 01:18:18;;;;;;;43.33;20.42;;;7.60;80.80;;;;;;5058179;28;20037;-35
2021/11/27 01:20:57;;;;;;;38.83;21.45;;;7.60;80.90;;;;;;5058908;28;20366;-34
2021/11/27 01:23:23;;;;;;;46.33;21.95;;;7.60;80.90;;;;;;5058572;28;20033;-34
2021/11/27 01:25:50;;;;;;;45.85;21.15;;;7.60;81.10;;;;;;5058899;28;20294;-35
2021/11/27 01:28:18;;;;;;;45.42;22.40;;;7.60;81.50;;;;;;5058057;28;20033;-40
2021/11/27 01:30:46;;;;;;;42.90;21.25;;;7.60;81.40;;;;;;5058779;28;20029;-34
2021/11/27 01:33:12;;;;;;;45.78;22.13;;;7.60;81.60;;;;;;5057984;28;20094;-41
2021/11/27 01:35:38;;;;;;;48.90;22.70;;;7.60;81.70;;;;;;5058754;28;20082;-35
2021/11/27 01:38:06;;;;;;;51.63;23.65;;;7.60;81.80;;;;;;5057907;28;20033;-34
2021/11/27 01:40:33;;;;;;;47.45;22.95;;;7.60;81.80;;;;;;5058508;28;20100;-40
2021/11/27 01:43:00;;;;;;;54.30;24.58;;;7.50;82.00;;;;;;5057807;28;20120;-34
2021/11/27 01:45:27;;;;;;;50.78;23.10;;;7.50;82.30;;;;;;5058087;28;20029;-40
2021/11/27 01:48:05;;;;;;;49.05;22.48;;;7.50;82.50;;;;;;5057723;28;20036;-34
2021/11/27 01:50:35;;;;;;;49.25;23.58;;;7.50;82.80;;;;;;5058492;28;20069;-40
2021/11/27 01:53:01;;;;;;;55.45;23.90;;;7.50;82.90;;;;;;5057917;28;20037;-34
2021/11/27 01:55:29;;;;;;;51.95;25.38;;;7.50;83.00;;;;;;5057547;28;20092;-40
2021/11/27 01:57:55;;;;;;;50.22;24.02;;;7.50;83.30;;;;;;5056411;28;20048;-40
2021/11/27 02:00:23;;;;;;;51.72;25.45;;;7.50;83.50;;;;;;5057682;28;20421;-34
2021/11/27 02:02:50;;;;;;;53.42;23.83;;;7.40;83.70;;;;;;5057480;28;20029;-40
2021/11/27 02:05:16;;;;;;;48.30;24.27;;;7.40;83.80;;;;;;5058027;28;20037;-34
2021/11/27 02:07:42;;;;;;;51.13;24.23;;;7.50;84.20;;;;;;5057741;28;20405;-34
2021/11/27 02:10:12;;;;;;;54.60;26.50;;;7.40;84.30;;;;;;5057800;28;20116;-40
2021/11/27 02:12:39;;;;;;;48.43;25.63;;;7.40;84.40;;;;;;5057570;28;20121;-35
2021/11/27 02:15:05;;;;;;;50.60;24.30;;;7.50;84.60;;;;;;5057753;28;20448;-34
2021/11/27 02:17:31;;;;;;;53.67;24.40;;;7.40;85.10;;;;;;5057492;28;20056;-34
2021/11/27 02:19:57;;;;;;;51.92;24.98;;;7.40;85.20;;;;;;5057748;28;20355;-40
2021/11/27 02:22:23;;;;;;;48.60;22.13;;;7.40;85.20;;;;;;5057380;28;20059;-35
2021/11/27 02:24:49;;;;;;;51.92;25.55;;;7.40;85.40;;;;;;5057285;28;20341;-35
2021/11/27 02:27:15;;;;;;;51.55;25.33;;;7.40;86.10;;;;;;5056029;28;20131;-32
2021/11/27 02:29:41;;;;;;;50.42;24.55;;;7.40;85.70;;;;;;5057624;28;20024;-34
2021/11/27 02:32:07;;;;;;;51.92;24.48;;;7.50;85.90;;;;;;5056959;28;20033;-39
2021/11/27 02:34:34;;;;;;;46.17;22.55;;;7.50;85.90;;;;;;5057527;28;20028;-34
2021/11/27 02:37:04;;;;;;;48.92;22.80;;;7.50;86.40;;;;;;5056789;28;20425;-41
2021/11/27 02:39:30;;;;;;;48.57;23.90;;;7.50;86.40;;;;;;5057094;28;20028;-34
2021/11/27 02:41:56;;;;;;;46.13;21.70;;;7.50;86.60;;;;;;5055628;28;20349;-35
2021/11/27 02:44:26;;;;;;;39.42;20.67;;;7.50;87.10;;;;;;5057182;28;20049;-40
2021/11/27 02:46:53;;;;;;;43.55;21.63;;;7.50;87.50;;;;;;5056649;28;20032;-40
2021/11/27 02:49:19;;;;;;;45.05;20.73;;;7.50;87.30;;;;;;5057077;28;20068;-34
2021/11/27 02:51:45;;;;;;;37.60;19.60;;;7.60;87.60;;;;;;5056673;28;20064;-40
2021/11/27 02:54:11;;;;;;;37.35;19.48;;;7.60;88.20;;;;;;5056495;28;20102;-40
2021/11/27 02:56:38;;;;;;;40.00;19.85;;;7.60;88.20;;;;;;5056570;28;20033;-40
2021/11/27 02:59:14;;;;;;;38.13;19.35;;;7.60;88.40;;;;;;5056837;28;20029;-35
2021/11/27 03:01:41;;;;;;;34.08;17.83;;;7.60;88.60;;;;;;5056214;28;20094;-40
2021/11/27 03:04:08;;;;;;;36.53;18.27;;;7.70;88.90;;;;;;5056677;28;20020;-40
2021/11/27 03:06:34;;;;;;;35.22;17.23;;;7.70;89.00;;;;;;5056576;28;20147;-34
2021/11/27 03:09:02;;;;;;;32.83;16.58;;;7.70;89.20;;;;;;5056174;28;20021;-35
2021/11/27 03:11:28;;;;;;;31.05;15.35;;;7.70;89.30;;;;;;5056189;28;20077;-35
2021/11/27 03:13:54;;;;;;;28.98;15.10;;;7.80;89.60;;;;;;5056425;28;20029;-35
2021/11/27 03:16:24;;;;;;;26.38;14.35;;;7.80;90.00;;;;;;5056177;28;20029;-40
2021/11/27 03:18:50;;;;;;;29.13;13.82;;;7.90;90.20;;;;;;5056500;28;20025;-33
2021/11/27 03:21:16;;;;;;;28.10;15.10;;;7.90;90.10;;;;;;5056030;28;20044;-34
2021/11/27 03:23:42;;;;;;;28.77;14.40;;;7.90;90.20;;;;;;5056476;28;20021;-34
2021/11/27 03:26:08;;;;;;;23.58;12.52;;;8.00;90.40;;;;;;5056258;28;20432;-41
2021/11/27 03:28:33;;;;;;;20.50;10.82;;;8.00;90.40;;;;;;5055906;28;20021;-34
2021/11/27 03:30:59;;;;;;;21.70;11.23;;;8.00;90.60;;;;;;5056580;28;20029;-36
2021/11/27 03:33:25;;;;;;;20.67;10.07;;;8.00;90.70;;;;;;5056294;28;20059;-34
2021/11/27 03:35:50;;;;;;;20.65;12.45;;;8.10;90.80;;;;;;5056559;28;20035;-40
2021/11/27 03:38:16;;;;;;;20.27;10.05;;;8.10;91.00;;;;;;5055783;28;20029;-34
2021/11/27 03:40:42;;;;;;;21.80;10.35;;;8.10;91.10;;;;;;5056431;28;20039;-41
2021/11/27 03:43:08;;;;;;;20.75;9.48;;;8.20;91.10;;;;;;5055718;28;20116;-34
2021/11/27 03:45:35;;;;;;;19.33;9.25;;;8.20;91.20;;;;;;5056383;28;20052;-39
2021/11/27 03:48:15;;;;;;;28.80;11.50;;;8.30;91.50;;;;;;5055635;28;20025;-39
2021/11/27 03:50:43;;;;;;;30.15;10.80;;;8.30;91.50;;;;;;5056381;28;20032;-41
2021/11/27 03:53:11;;;;;;;29.75;11.25;;;8.30;91.50;;;;;;5055560;28;20029;-34
2021/11/27 03:55:37;;;;;;;36.60;11.40;;;8.40;91.50;;;;;;5055722;28;20391;-39
2021/11/27 03:58:03;;;;;;;31.27;11.77;;;8.40;91.40;;;;;;5055580;28;20032;-40
2021/11/27 04:00:29;;;;;;;35.28;12.57;;;8.40;91.40;;;;;;5056100;28;20052;-34
2021/11/27 04:02:56;;;;;;;41.35;14.45;;;8.50;91.50;;;;;;5055445;28;20029;-35
2021/11/27 04:05:22;;;;;;;32.90;10.27;;;8.50;91.40;;;;;;5056105;28;20345;-35
2021/11/27 04:07:56;;;;;;;26.52;9.55;;;8.60;91.50;;;;;;5055412;28;20028;-40
2021/11/27 04:10:23;;;;;;;32.72;11.45;;;8.60;91.50;;;;;;5055890;28;20040;-40
2021/11/27 04:12:49;;;;;;;35.03;11.98;;;8.60;91.40;;;;;;5055319;28;20040;-40
2021/11/27 04:15:14;;;;;;;28.73;10.23;;;8.60;91.50;;;;;;5055872;28;20037;-35
2021/11/27 04:17:40;;;;;;;28.25;11.75;;;8.60;91.50;;;;;;5055278;28;20033;-38
2021/11/27 04:20:07;;;;;;;47.33;16.08;;;8.70;91.50;;;;;;5055658;28;20029;-40
2021/11/27 04:22:33;;;;;;;62.85;18.75;;;8.70;91.50;;;;;;5055277;28;20040;-39
2021/11/27 04:24:59;;;;;;;61.65;19.38;;;8.70;91.60;;;;;;5055896;28;20025;-33
2021/11/27 04:27:24;;;;;;;56.08;18.67;;;8.70;91.50;;;;;;5055252;28;20414;-34
2021/11/27 04:29:50;;;;;;;70.22;20.50;;;8.70;91.60;;;;;;5055851;28;20033;-33
2021/11/27 04:32:16;;;;;;;65.20;18.08;;;8.70;91.60;;;;;;5055307;28;20353;-39
2021/11/27 04:34:42;;;;;;;62.17;17.73;;;8.80;91.70;;;;;;5055635;28;20445;-34
2021/11/27 04:37:10;;;;;;;65.45;18.90;;;8.80;91.90;;;;;;5055278;28;20025;-33
2021/11/27 04:39:40;;;;;;;77.32;21.77;;;8.80;91.70;;;;;;5055623;28;20317;-39
2021/11/27 04:42:06;;;;;;;57.67;18.55;;;8.80;91.60;;;;;;5055149;28;20033;-34
2021/11/27 04:44:32;;;;;;;61.35;19.40;;;8.80;91.60;;;;;;5055616;28;20025;-41
2021/11/27 04:46:58;;;;;;;84.10;23.52;;;8.80;91.70;;;;;;5055342;28;20405;-41
2021/11/27 04:49:24;;;;;;;73.47;22.75;;;8.80;91.70;;;;;;5056722;28;20029;-38
2021/11/27 04:51:50;;;;;;;69.28;19.58;;;8.80;91.70;;;;;;5058896;28;20040;-34
2021/11/27 04:54:16;;;;;;;63.85;20.55;;;8.80;91.70;;;;;;5059363;28;20361;-34
2021/11/27 04:56:41;;;;;;;67.18;18.45;;;8.80;91.70;;;;;;5058808;28;20029;-38
2021/11/27 04:59:07;;;;;;;52.47;16.88;;;8.90;91.80;;;;;;5058803;28;20333;-35
2021/11/27 05:01:33;;;;;;;35.05;11.77;;;8.90;91.70;;;;;;5058942;28;20116;-39
2021/11/27 05:03:59;;;;;;;31.90;11.32;;;8.90;91.70;;;;;;5059002;28;20032;-35
2021/11/27 05:06:25;;;;;;;20.42;9.18;;;8.90;91.70;;;;;;5058685;28;20039;-34
2021/11/27 05:08:51;;;;;;;19.55;8.82;;;8.90;91.70;;;;;;5058679;28;20096;-34
2021/11/27 05:11:17;;;;;;;15.77;8.57;;;8.90;91.80;;;;;;5058501;28;20032;-39
2021/11/27 05:13:43;;;;;;;12.43;7.10;;;8.90;91.80;;;;;;5058761;28;20036;-38
2021/11/27 05:16:09;;;;;;;8.80;5.18;;;8.90;92.00;;;;;;5058904;28;20413;-34
2021/11/27 05:18:35;;;;;;;11.07;6.25;;;8.90;92.00;;;;;;5058282;28;20112;-40
2021/11/27 05:21:02;;;;;;;9.32;6.70;;;8.90;92.00;;;;;;5058816;28;20037;-35
2021/11/27 05:23:27;;;;;;;6.57;4.50;;;8.90;92.00;;;;;;5058511;28;20029;-34
2021/11/27 05:25:54;;;;;;;10.05;7.35;;;8.90;92.00;;;;;;5058957;28;20029;-38
2021/11/27 05:28:20;;;;;;;11.05;7.70;;;8.90;92.10;;;;;;5058485;28;20429;-34
2021/11/27 05:30:47;;;;;;;9.70;6.32;;;8.90;92.20;;;;;;5058771;28;20040;-35
2021/11/27 05:33:16;;;;;;;9.95;6.90;;;8.90;92.30;;;;;;5057980;28;20039;-34
2021/11/27 05:35:42;;;;;;;11.68;7.15;;;8.90;92.40;;;;;;5058603;28;20098;-41
2021/11/27 05:38:09;;;;;;;9.07;6.05;;;9.00;92.50;;;;;;5057695;28;20116;-39
2021/11/27 05:40:37;;;;;;;11.63;7.85;;;9.00;92.70;;;;;;5058445;28;20052;-35
2021/11/27 05:43:04;;;;;;;12.18;7.22;;;9.00;92.80;;;;;;5057768;28;20048;-39
2021/11/27 05:45:30;;;;;;;11.23;7.20;;;9.00;92.80;;;;;;5058451;28;20027;-37
2021/11/27 05:47:57;;;;;;;12.40;7.72;;;9.00;92.80;;;;;;5057893;28;20385;-40
2021/11/27 05:50:23;;;;;;;10.77;8.13;;;9.00;92.80;;;;;;5058245;28;20121;-35
2021/11/27 05:52:51;;;;;;;11.95;8.10;;;9.00;92.80;;;;;;5057468;28;20076;-36
2021/11/27 05:55:17;;;;;;;15.40;10.05;;;9.10;92.80;;;;;;5057571;28;20127;-40
2021/11/27 05:57:43;;;;;;;10.32;7.90;;;9.10;92.90;;;;;;5057602;28;20044;-39
2021/11/27 06:00:09;;;;;;;16.30;9.60;;;9.10;92.90;;;;;;5057523;28;20344;-35
2021/11/27 06:02:35;;;;;;;12.38;7.57;;;9.20;92.90;;;;;;5057304;28;20033;-41
2021/11/27 06:05:01;;;;;;;11.02;6.53;;;9.20;92.90;;;;;;5057979;28;20040;-39
2021/11/27 06:07:26;;;;;;;14.02;10.00;;;9.20;92.90;;;;;;5056215;28;20082;-39
2021/11/27 06:09:52;;;;;;;11.95;8.15;;;9.30;92.90;;;;;;5057862;28;20033;-34
2021/11/27 06:12:18;;;;;;;10.65;7.30;;;9.30;92.90;;;;;;5057195;28;20072;-39
2021/11/27 06:14:43;;;;;;;8.60;6.22;;;9.40;92.90;;;;;;5057552;28;20408;-39
2021/11/27 06:17:09;;;;;;;9.77;5.72;;;9.40;92.90;;;;;;5057039;28;20029;-38
2021/11/27 06:19:35;;;;;;;10.95;5.90;;;9.40;92.80;;;;;;5057482;28;20191;-40
2021/11/27 06:22:00;;;;;;;9.20;6.60;;;9.40;92.80;;;;;;5056862;28;20118;-38
2021/11/27 06:24:26;;;;;;;16.33;10.93;;;9.50;92.70;;;;;;5057534;28;20025;-38
2021/11/27 06:26:52;;;;;;;16.30;11.10;;;9.50;92.70;;;;;;5057057;28;20087;-34
2021/11/27 06:29:18;;;;;;;13.75;8.10;;;9.50;92.70;;;;;;5057426;28;20051;-34
2021/11/27 06:31:43;;;;;;;13.30;9.98;;;9.50;92.70;;;;;;5056802;28;20037;-34
2021/11/27 06:34:09;;;;;;;11.02;7.75;;;9.60;92.60;;;;;;5057102;28;20551;-34
2021/11/27 06:36:35;;;;;;;13.18;8.55;;;9.50;92.60;;;;;;5057017;28;20040;-39
2021/11/27 06:39:00;;;;;;;14.13;9.15;;;9.60;92.70;;;;;;5056995;28;20290;-39
2021/11/27 06:41:26;;;;;;;9.85;6.97;;;9.60;92.60;;;;;;5056885;28;20033;-34
2021/11/27 06:43:52;;;;;;;14.27;9.48;;;9.60;92.60;;;;;;5056988;28;20076;-34
2021/11/27 06:46:17;;;;;;;12.27;7.75;;;9.60;92.50;;;;;;5056872;28;20039;-39
2021/11/27 06:48:43;;;;;;;11.75;7.60;;;9.70;92.50;;;;;;5056677;28;20377;-36
2021/11/27 06:51:10;;;;;;;14.90;9.25;;;9.70;92.50;;;;;;5056913;28;20041;-34
2021/11/27 06:53:35;;;;;;;14.15;9.70;;;9.70;92.50;;;;;;5056857;28;20072;-39
2021/11/27 06:56:02;;;;;;;9.80;6.85;;;9.80;92.50;;;;;;5056401;28;20410;-35
2021/11/27 06:58:28;;;;;;;11.85;6.70;;;9.80;92.40;;;;;;5056514;28;20035;-35
2021/11/27 07:00:54;;;;;;;13.75;7.93;;;9.80;92.40;;;;;;5053301;28;20453;-34
2021/11/27 07:03:19;;;;;;;16.45;9.68;;;9.80;92.40;;;;;;5055726;28;20025;-39
2021/11/27 07:05:45;;;;;;;16.52;9.23;;;9.90;92.40;;;;;;5056475;28;20060;-34
2021/11/27 07:08:11;;;;;;;20.60;11.57;;;9.90;92.40;;;;;;5055986;28;20104;-35
2021/11/27 07:10:37;;;;;;;14.07;8.63;;;9.90;92.40;;;;;;5056157;28;20359;-35
2021/11/27 07:13:03;;;;;;;11.63;7.78;;;9.90;92.40;;;;;;5055214;28;20421;-40
2021/11/27 07:15:28;;;;;;;13.02;8.98;;;10.00;92.30;;;;;;5056305;28;20428;-35
2021/11/27 07:17:54;;;;;;;22.25;12.50;;;9.90;92.30;;;;;;5055552;28;20049;-35
2021/11/27 07:20:20;;;;;;;17.95;13.88;;;10.00;92.30;;;;;;5056347;28;20033;-40
2021/11/27 07:22:46;;;;;;;20.10;13.65;;;10.00;92.20;;;;;;5055381;28;20329;-40
2021/11/27 07:25:12;;;;;;;18.58;12.02;;;10.00;92.30;;;;;;5055944;28;20057;-35
2021/11/27 07:27:37;;;;;;;19.35;12.95;;;10.10;92.30;;;;;;5055729;28;20337;-40
2021/11/27 07:30:05;;;;;;;19.20;12.93;;;10.10;92.30;;;;;;5055878;28;20104;-39
2021/11/27 07:32:31;;;;;;;16.92;11.23;;;10.10;92.30;;;;;;5055368;28;20329;-34
2021/11/27 07:34:56;;;;;;;17.77;10.82;;;10.20;92.30;;;;;;5056185;28;20029;-39
2021/11/27 07:37:22;;;;;;;15.38;9.60;;;10.20;92.20;;;;;;5055117;28;20075;-36
2021/11/27 07:39:48;;;;;;;16.33;9.27;;;10.20;92.10;;;;;;5055836;28;20305;-34
2021/11/27 07:42:14;;;;;;;11.88;7.80;;;10.20;92.10;;;;;;5055289;28;20108;-35
2021/11/27 07:44:40;;;;;;;15.43;8.65;;;10.20;92.10;;;;;;5055643;28;20035;-40
2021/11/27 07:47:07;;;;;;;13.73;8.77;;;10.30;92.10;;;;;;5055049;28;20903;-35
2021/11/27 07:49:32;;;;;;;16.50;9.32;;;10.30;92.10;;;;;;5056133;28;20398;-35
2021/11/27 07:51:58;;;;;;;16.40;10.20;;;10.30;92.10;;;;;;5055153;28;20040;-40
2021/11/27 07:54:24;;;;;;;18.73;10.32;;;10.30;92.10;;;;;;5055395;28;20049;-35
2021/11/27 07:56:51;;;;;;;13.38;8.63;;;10.40;92.10;;;;;;5055327;28;20037;-39
2021/11/27 07:59:18;;;;;;;19.45;9.85;;;10.40;92.10;;;;;;5055502;28;20045;-34
2021/11/27 08:01:44;;;;;;;18.55;11.27;;;10.40;92.10;;;;;;5055219;28;20052;-40
2021/11/27 08:04:10;;;;;;;23.45;13.05;;;10.40;92.10;;;;;;5055389;28;20033;-40
2021/11/27 08:06:36;;;;;;;16.70;10.10;;;10.50;92.10;;;;;;5054718;28;20108;-34
2021/11/27 08:09:02;;;;;;;14.77;9.77;;;10.50;92.10;;;;;;5055051;28;20037;-34
2021/11/27 08:11:27;;;;;;;18.27;12.18;;;10.50;92.10;;;;;;5054849;28;20074;-35
2021/11/27 08:13:54;;;;;;;15.88;9.52;;;10.60;92.10;;;;;;5055357;28;20025;-40
2021/11/27 08:16:20;;;;;;;14.93;9.80;;;10.60;92.10;;;;;;5055018;28;20048;-40
2021/11/27 08:18:46;;;;;;;18.58;9.60;;;10.60;92.00;;;;;;5054534;28;20394;-39
2021/11/27 08:21:13;;;;;;;14.52;9.95;;;10.60;92.00;;;;;;5054746;28;20108;-40
2021/11/27 08:23:39;;;;;;;16.60;10.27;;;10.60;91.90;;;;;;5057096;28;20104;-40
2021/11/27 08:26:05;;;;;;;17.63;11.73;;;10.70;91.80;;;;;;5059334;28;20302;-36
2021/11/27 08:28:31;;;;;;;19.70;11.77;;;10.70;91.80;;;;;;5059184;28;20032;-39
2021/11/27 08:30:57;;;;;;;19.92;11.05;;;10.70;91.70;;;;;;5059254;28;20366;-39
2021/11/27 08:33:23;;;;;;;18.05;11.00;;;10.70;91.70;;;;;;5058988;28;20112;-35
2021/11/27 08:35:48;;;;;;;15.98;10.18;;;10.70;91.60;;;;;;5059377;28;20036;-35
2021/11/27 08:38:14;;;;;;;17.13;9.95;;;10.80;91.60;;;;;;5059148;28;20067;-40
2021/11/27 08:40:40;;;;;;;20.77;11.63;;;10.80;91.70;;;;;;5059177;28;20330;-40
2021/11/27 08:43:06;;;;;;;23.95;12.45;;;10.80;91.70;;;;;;5058592;28;20064;-35
2021/11/27 08:45:32;;;;;;;21.65;11.85;;;10.90;91.90;;;;;;5057763;28;20021;-38
2021/11/27 08:47:58;;;;;;;23.45;12.45;;;10.90;92.00;;;;;;5058752;28;20334;-41
2021/11/27 08:50:24;;;;;;;20.48;13.00;;;11.00;91.90;;;;;;5058890;28;20021;-40
2021/11/27 08:52:50;;;;;;;22.10;13.23;;;11.10;91.80;;;;;;5058583;28;20112;-35
2021/11/27 08:55:17;;;;;;;21.70;13.20;;;11.10;91.60;;;;;;5058549;28;20464;-39
2021/11/27 08:57:43;;;;;;;26.30;12.98;;;11.20;91.50;;;;;;5058412;28;20273;-40
2021/11/27 09:00:11;;;;;;;23.80;12.90;;;11.20;91.40;;;;;;5058484;28;20039;-40
2021/11/27 09:02:37;;;;;;;20.60;12.80;;;11.30;91.30;;;;;;5058651;28;20033;-35
2021/11/27 09:05:04;;;;;;;21.13;12.57;;;11.30;91.10;;;;;;5058485;28;20033;-38
2021/11/27 09:07:29;;;;;;;21.30;11.82;;;11.40;91.20;;;;;;5058406;28;20056;-35
2021/11/27 09:09:55;;;;;;;19.30;11.90;;;11.40;91.20;;;;;;5058732;28;20029;-34
2021/11/27 09:12:22;;;;;;;20.40;12.32;;;11.50;91.20;;;;;;5057928;28;20082;-34
2021/11/27 09:14:53;;;;;;;21.75;12.25;;;11.50;90.80;;;;;;5058496;28;20036;-34
2021/11/27 09:17:19;;;;;;;20.77;11.52;;;11.60;90.70;;;;;;5057765;28;20036;-34
2021/11/27 09:19:46;;;;;;;26.55;16.98;;;11.60;90.50;;;;;;5058473;28;20029;-38
2021/11/27 09:22:12;;;;;;;21.77;12.70;;;11.60;90.40;;;;;;5058253;28;20275;-38
2021/11/27 09:24:38;;;;;;;21.77;12.45;;;11.60;90.50;;;;;;5058322;28;20425;-36
2021/11/27 09:27:05;;;;;;;18.83;10.73;;;11.60;90.60;;;;;;5057691;28;20017;-34
2021/11/27 09:29:31;;;;;;;17.73;12.68;;;11.70;90.50;;;;;;5058253;28;20110;-39
2021/11/27 09:31:58;;;;;;;25.20;13.30;;;11.70;90.60;;;;;;5058008;28;20036;-34
2021/11/27 09:34:24;;;;;;;18.88;11.73;;;11.70;90.60;;;;;;5057682;28;20410;-34
2021/11/27 09:36:50;;;;;;;23.27;12.13;;;11.80;90.60;;;;;;5057702;28;20433;-34
2021/11/27 09:39:16;;;;;;;21.17;12.55;;;11.80;90.40;;;;;;5057917;28;20033;-36
2021/11/27 09:41:44;;;;;;;21.55;11.95;;;11.80;90.40;;;;;;5057544;28;20029;-35
2021/11/27 09:55:38;;;;;;;19.70;11.90;;;11.90;89.80;;;;;;5122330;27;20110;-37
2021/11/27 09:58:03;;;;;;;21.60;13.15;;;13.00;83.60;;;;;;5092544;28;20040;-34
2021/11/27 10:00:29;;;;;;;20.58;12.48;;;12.90;84.10;;;;;;5092446;28;20040;-33
2021/11/27 10:02:58;;;;;;;83.60;16.92;;;12.80;84.70;;;;;;5090129;28;20021;-32
2021/11/27 10:05:24;;;;;;;22.52;13.60;;;12.70;85.00;;;;;;5092234;28;20035;-32
2021/11/27 10:07:52;;;;;;;17.38;12.43;;;12.60;85.70;;;;;;5091908;28;20020;-40
2021/11/27 10:10:18;;;;;;;19.52;12.55;;;12.60;86.00;;;;;;5090547;28;20591;-34
2021/11/27 10:12:44;;;;;;;23.17;14.63;;;12.50;86.30;;;;;;5090766;28;20020;-40
2021/11/27 10:15:13;;;;;;;22.42;12.68;;;12.50;86.50;;;;;;5090478;28;20032;-40
2021/11/27 10:17:39;;;;;;;21.02;11.93;;;12.50;86.90;;;;;;5090669;28;20495;-35
2021/11/27 10:20:06;;;;;;;16.40;10.93;;;12.50;86.90;;;;;;5091953;28;20100;-40
2021/11/27 10:22:38;;;;;;;23.38;12.93;;;12.60;86.60;;;;;;5092536;28;20051;-40
2021/11/27 10:25:23;;;;;;;19.83;10.95;;;12.60;86.70;;;;;;5091775;28;20033;-40
2021/11/27 10:27:50;;;;;;;17.17;11.02;;;12.60;86.30;;;;;;5092148;28;20052;-40
2021/11/27 10:30:16;;;;;;;15.57;11.23;;;12.60;86.30;;;;;;5091532;28;20024;-35
2021/11/27 10:32:45;;;;;;;19.40;11.27;;;12.70;86.10;;;;;;5092166;28;20308;-40
2021/11/27 10:35:14;;;;;;;22.15;12.18;;;12.70;86.00;;;;;;5091440;28;20024;-35
2021/11/27 10:37:53;;;;;;;15.75;10.65;;;12.70;86.30;;;;;;5092501;28;20020;-40
2021/11/27 10:40:22;;;;;;;18.20;11.48;;;12.80;85.80;;;;;;5091942;28;20033;-40
2021/11/27 10:42:49;;;;;;;18.48;12.48;;;12.90;85.50;;;;;;5092075;28;20021;-35
2021/11/27 10:45:24;;;;;;;21.05;13.57;;;12.90;84.80;;;;;;5092182;28;20016;-35
2021/11/27 10:48:05;;;;;;;16.92;10.90;;;12.90;84.60;;;;;;5092125;28;20111;-40
2021/11/27 10:50:41;;;;;;;16.38;10.52;;;13.00;84.40;;;;;;5092029;28;20035;-40
2021/11/27 10:53:12;;;;;;;18.48;11.50;;;13.00;84.40;;;;;;5092102;28;20039;-35
2021/11/27 10:55:39;;;;;;;18.67;10.57;;;13.00;83.30;;;;;;5084155;28;20444;-40
2021/11/27 10:58:08;;;;;;;13.02;9.55;;;13.00;82.60;;;;;;5077391;28;20357;-35
2021/11/27 11:00:43;;;;;;;18.27;10.77;;;13.00;82.30;;;;;;5078446;28;20124;-41
2021/11/27 11:03:29;;;;;;;17.17;10.48;;;13.00;82.50;;;;;;5077702;28;20033;-35
2021/11/27 11:05:58;;;;;;;16.38;10.80;;;13.00;82.70;;;;;;5078587;28;20028;-39
2021/11/27 11:08:37;;;;;;;15.90;10.77;;;13.00;82.60;;;;;;5078489;28;20029;-36
2021/11/27 11:11:28;;;;;;;17.73;10.82;;;13.00;82.20;;;;;;5078482;28;20324;-41
2021/11/27 11:13:55;;;;;;;;;;;13.00;82.30;;;;;;5078766;28;20033;-40
2021/11/27 11:16:26;;;;;;;17.73;10.55;;;12.90;82.10;;;;;;5078182;28;19958;-36
2021/11/27 11:19:11;;;;;;;20.30;12.85;;;12.90;82.00;;;;;;5077683;28;20067;-36
2021/11/27 11:21:37;;;;;;;16.85;10.70;;;12.90;81.10;;;;;;5078172;28;20033;-35
2021/11/27 11:24:22;;;;;;;14.18;9.52;;;12.90;81.30;;;;;;5078103;28;20371;-40
2021/11/27 11:26:55;;;;;;;15.02;10.38;;;12.90;80.70;;;;;;5077829;28;20037;-35
2021/11/27 11:29:40;;;;;;;16.92;10.25;;;12.90;80.80;;;;;;5077657;28;20098;-34
2021/11/27 11:32:15;;;;;;;14.43;10.15;;;12.90;80.70;;;;;;5077794;28;20024;-35
2021/11/27 11:34:42;;;;;;;18.08;10.32;;;12.90;80.80;;;;;;5077479;28;20036;-41
2021/11/27 11:37:08;;;;;;;15.85;10.27;;;12.80;80.60;;;;;;5077803;28;20037;-35
2021/11/27 11:39:36;;;;;;;14.38;9.98;;;12.80;80.70;;;;;;5077949;28;20060;-35
2021/11/27 11:42:02;;;;;;;17.08;9.98;;;12.90;80.50;;;;;;5077847;28;20339;-35
2021/11/27 11:44:29;;;;;;;13.75;9.30;;;12.80;80.20;;;;;;5077361;28;20045;-40
2021/11/27 11:46:55;;;;;;;17.42;10.68;;;12.80;80.20;;;;;;5077566;28;20265;-36
2021/11/27 11:49:21;;;;;;;15.85;10.65;;;12.80;80.20;;;;;;5077838;28;20028;-35
2021/11/27 11:52:07;;;;;;;15.13;10.65;;;12.80;80.50;;;;;;5077796;28;20412;-35
2021/11/27 11:54:34;;;;;;;17.92;10.98;;;12.80;80.50;;;;;;5077035;28;20352;-35
2021/11/27 11:57:09;;;;;;;16.92;10.30;;;12.80;80.70;;;;;;5077647;28;20035;-40
2021/11/27 11:59:39;;;;;;;14.55;11.00;;;12.80;80.80;;;;;;5077523;28;20068;-40
2021/11/27 12:02:28;;;;;;;14.35;10.50;;;12.80;81.30;;;;;;5077081;28;20561;-40
2021/11/27 12:05:08;;;;;;;17.63;11.13;;;12.80;80.70;;;;;;5077309;28;20059;-41
2021/11/27 12:07:50;;;;;;;17.70;11.83;;;12.80;80.90;;;;;;5076516;28;20036;-35
2021/11/27 12:10:28;;;;;;;17.40;10.65;;;12.80;81.10;;;;;;5076883;28;20258;-35
2021/11/27 12:13:09;;;;;;;17.05;10.77;;;12.80;81.00;;;;;;5076802;28;20025;-38
2021/11/27 12:15:43;;;;;;;17.42;11.38;;;12.80;80.90;;;;;;5077232;28;20282;-49
2021/11/27 12:18:16;;;;;;;18.63;10.75;;;12.80;80.70;;;;;;5076864;28;20040;-35
2021/11/27 12:20:45;;;;;;;17.35;10.93;;;12.80;80.90;;;;;;5077138;28;20354;-36
2021/11/27 12:23:40;;;;;;;17.15;11.13;;;12.80;80.80;;;;;;5076941;28;20428;-35
2021/11/27 12:28:51;;;;;;;16.67;11.10;;;12.80;80.90;;;;;;5076852;28;20032;-42
2021/11/27 12:31:23;;;;;;;17.15;11.13;;;12.80;80.70;;;;;;5076642;28;20039;-35
2021/11/27 12:33:49;;;;;;;18.17;11.90;;;12.80;80.70;;;;;;5076840;28;20089;-40
2021/11/27 12:36:28;;;;;;;17.08;11.20;;;12.80;80.60;;;;;;5076536;28;20414;-41
2021/11/27 12:38:58;;;;;;;20.75;12.80;;;12.80;80.50;;;;;;5076373;28;20048;-36
2021/11/27 12:41:26;;;;;;;19.05;11.88;;;12.80;80.60;;;;;;5076471;28;20024;-35
2021/11/27 12:44:27;;;;;;;16.38;11.00;;;12.80;80.40;;;;;;5076618;28;20432;-40
2021/11/27 12:47:20;;;;;;;17.30;11.00;;;12.80;80.40;;;;;;5072126;28;20029;-35
2021/11/27 12:49:46;;;;;;;16.38;11.75;;;12.80;80.40;;;;;;5076488;28;20037;-35
2021/11/27 12:52:15;;;;;;;17.88;12.13;;;12.70;80.40;;;;;;5076103;28;20100;-35
2021/11/27 12:54:43;;;;;;;16.58;11.38;;;12.70;80.60;;;;;;5075807;28;20048;-40